Huntsville, Indiana
Current Conditions -  °F | °C
As of 2:15 AM on Wednesday 22 Oct 2014 (Local Time) from KMQJ Reporting Station
Clear Clear  
Wind Chill: 41°   Ceiling: Unl
Heat Index: 41°   Visibility: 10mi
Dew Point: 32°   Wind: 3mph
Humidity: 70%   Direction: 360°N
Pressure: 30.21"   Gusts: NA
Location:  39.98°N, 85.7739°W
Report Text: KMQJ 220615Z AUTO 36003KT 10SM CLR 05/00 A3021 RMK AO1
Loading
Personal Weather Stations






























Interactive Weather Map
Tropical Storm Tracking
New forecast layout! Learn more

10-Day Weather Forecast

Advertisements
Track Severe Weather on mobile